sensor_id;sensor_type;location;lat;lon;timestamp;P1;durP1;ratioP1;P2;durP2;ratioP2
75739;SDS011;64357;51.344;6.550;2023-04-03T00:01:46;14.27;;;3.42;;
75739;SDS011;64357;51.344;6.550;2023-04-03T00:04:11;8.43;;;2.97;;
75739;SDS011;64357;51.344;6.550;2023-04-03T00:06:36;7.43;;;2.60;;
75739;SDS011;64357;51.344;6.550;2023-04-03T00:09:02;6.77;;;2.60;;
75739;SDS011;64357;51.344;6.550;2023-04-03T00:11:30;8.07;;;2.53;;
75739;SDS011;64357;51.344;6.550;2023-04-03T00:13:55;8.07;;;2.72;;
75739;SDS011;64357;51.344;6.550;2023-04-03T00:16:21;6.73;;;2.80;;
75739;SDS011;64357;51.344;6.550;2023-04-03T00:18:46;9.20;;;2.60;;
75739;SDS011;64357;51.344;6.550;2023-04-03T00:21:12;7.93;;;2.83;;
75739;SDS011;64357;51.344;6.550;2023-04-03T00:23:42;9.55;;;2.85;;
75739;SDS011;64357;51.344;6.550;2023-04-03T00:26:11;7.50;;;2.60;;
75739;SDS011;64357;51.344;6.550;2023-04-03T00:28:36;8.77;;;2.47;;
75739;SDS011;64357;51.344;6.550;2023-04-03T00:31:01;7.70;;;2.37;;
75739;SDS011;64357;51.344;6.550;2023-04-03T00:33:29;6.55;;;2.40;;
75739;SDS011;64357;51.344;6.550;2023-04-03T00:35:54;7.57;;;2.67;;
75739;SDS011;64357;51.344;6.550;2023-04-03T00:38:20;5.83;;;2.23;;
75739;SDS011;64357;51.344;6.550;2023-04-03T00:40:46;6.55;;;2.30;;
75739;SDS011;64357;51.344;6.550;2023-04-03T00:43:21;7.05;;;2.38;;
75739;SDS011;64357;51.344;6.550;2023-04-03T00:45:49;6.40;;;2.38;;
75739;SDS011;64357;51.344;6.550;2023-04-03T00:48:38;7.00;;;2.58;;
75739;SDS011;64357;51.344;6.550;2023-04-03T00:51:30;8.50;;;2.80;;
75739;SDS011;64357;51.344;6.550;2023-04-03T00:54:01;9.38;;;2.65;;
75739;SDS011;64357;51.344;6.550;2023-04-03T00:56:31;8.48;;;3.00;;
75739;SDS011;64357;51.344;6.550;2023-04-03T00:59:00;9.73;;;2.90;;
75739;SDS011;64357;51.344;6.550;2023-04-03T01:01:35;9.07;;;3.35;;
75739;SDS011;64357;51.344;6.550;2023-04-03T01:04:01;7.28;;;2.83;;
75739;SDS011;64357;51.344;6.550;2023-04-03T01:06:28;7.80;;;2.70;;
75739;SDS011;64357;51.344;6.550;2023-04-03T01:08:57;9.13;;;3.15;;
75739;SDS011;64357;51.344;6.550;2023-04-03T01:11:27;11.18;;;3.60;;
75739;SDS011;64357;51.344;6.550;2023-04-03T01:13:53;8.30;;;3.20;;
75739;SDS011;64357;51.344;6.550;2023-04-03T01:16:18;12.02;;;3.10;;
75739;SDS011;64357;51.344;6.550;2023-04-03T01:18:44;7.28;;;2.90;;
75739;SDS011;64357;51.344;6.550;2023-04-03T01:21:25;7.93;;;3.00;;
75739;SDS011;64357;51.344;6.550;2023-04-03T01:26:47;9.45;;;3.28;;
75739;SDS011;64357;51.344;6.550;2023-04-03T01:29:14;7.75;;;3.13;;
75739;SDS011;64357;51.344;6.550;2023-04-03T01:34:14;8.95;;;3.33;;
75739;SDS011;64357;51.344;6.550;2023-04-03T01:36:40;11.20;;;3.33;;
75739;SDS011;64357;51.344;6.550;2023-04-03T01:39:06;8.25;;;3.05;;
75739;SDS011;64357;51.344;6.550;2023-04-03T01:41:32;9.35;;;3.42;;
75739;SDS011;64357;51.344;6.550;2023-04-03T01:43:58;9.48;;;3.28;;
75739;SDS011;64357;51.344;6.550;2023-04-03T01:46:23;12.07;;;3.80;;
75739;SDS011;64357;51.344;6.550;2023-04-03T01:48:49;11.15;;;3.28;;
75739;SDS011;64357;51.344;6.550;2023-04-03T01:51:14;8.30;;;3.37;;
75739;SDS011;64357;51.344;6.550;2023-04-03T01:53:40;8.20;;;3.58;;
75739;SDS011;64357;51.344;6.550;2023-04-03T01:56:05;10.27;;;3.33;;
75739;SDS011;64357;51.344;6.550;2023-04-03T01:58:34;9.70;;;3.45;;
75739;SDS011;64357;51.344;6.550;2023-04-03T02:01:00;10.15;;;3.58;;
75739;SDS011;64357;51.344;6.550;2023-04-03T02:03:29;9.75;;;3.67;;
75739;SDS011;64357;51.344;6.550;2023-04-03T02:05:57;9.50;;;3.92;;
75739;SDS011;64357;51.344;6.550;2023-04-03T02:08:22;8.15;;;3.15;;
75739;SDS011;64357;51.344;6.550;2023-04-03T02:10:48;11.70;;;3.73;;
75739;SDS011;64357;51.344;6.550;2023-04-03T02:13:17;10.55;;;3.75;;
75739;SDS011;64357;51.344;6.550;2023-04-03T02:15:43;9.07;;;3.03;;
75739;SDS011;64357;51.344;6.550;2023-04-03T02:18:08;11.50;;;3.57;;
75739;SDS011;64357;51.344;6.550;2023-04-03T02:20:34;8.10;;;3.25;;
75739;SDS011;64357;51.344;6.550;2023-04-03T02:22:59;10.20;;;3.33;;
75739;SDS011;64357;51.344;6.550;2023-04-03T02:25:26;10.38;;;3.33;;
75739;SDS011;64357;51.344;6.550;2023-04-03T02:27:51;10.23;;;3.22;;
75739;SDS011;64357;51.344;6.550;2023-04-03T02:30:19;8.43;;;3.03;;
75739;SDS011;64357;51.344;6.550;2023-04-03T02:32:45;10.43;;;3.47;;
75739;SDS011;64357;51.344;6.550;2023-04-03T02:35:12;8.80;;;3.17;;
75739;SDS011;64357;51.344;6.550;2023-04-03T02:37:38;9.27;;;3.22;;
75739;SDS011;64357;51.344;6.550;2023-04-03T02:40:08;7.63;;;3.15;;
75739;SDS011;64357;51.344;6.550;2023-04-03T02:42:36;10.32;;;3.03;;
75739;SDS011;64357;51.344;6.550;2023-04-03T02:45:02;9.10;;;3.08;;
75739;SDS011;64357;51.344;6.550;2023-04-03T02:47:27;10.43;;;3.13;;
75739;SDS011;64357;51.344;6.550;2023-04-03T02:49:53;8.48;;;2.63;;
75739;SDS011;64357;51.344;6.550;2023-04-03T02:52:18;7.00;;;2.60;;
75739;SDS011;64357;51.344;6.550;2023-04-03T02:54:46;9.40;;;3.00;;
75739;SDS011;64357;51.344;6.550;2023-04-03T02:57:11;8.37;;;3.17;;
75739;SDS011;64357;51.344;6.550;2023-04-03T02:59:37;7.35;;;2.53;;
75739;SDS011;64357;51.344;6.550;2023-04-03T03:02:09;10.48;;;2.67;;
75739;SDS011;64357;51.344;6.550;2023-04-03T03:04:35;8.52;;;2.63;;
75739;SDS011;64357;51.344;6.550;2023-04-03T03:07:01;9.60;;;2.22;;
75739;SDS011;64357;51.344;6.550;2023-04-03T03:09:29;6.28;;;2.38;;
75739;SDS011;64357;51.344;6.550;2023-04-03T03:11:55;11.70;;;2.58;;
75739;SDS011;64357;51.344;6.550;2023-04-03T03:14:20;6.88;;;2.47;;
75739;SDS011;64357;51.344;6.550;2023-04-03T03:16:46;11.17;;;2.70;;
75739;SDS011;64357;51.344;6.550;2023-04-03T03:19:11;7.50;;;2.43;;
75739;SDS011;64357;51.344;6.550;2023-04-03T03:21:37;5.83;;;1.87;;
75739;SDS011;64357;51.344;6.550;2023-04-03T03:24:02;7.15;;;2.65;;
75739;SDS011;64357;51.344;6.550;2023-04-03T03:26:28;6.10;;;1.42;;
75739;SDS011;64357;51.344;6.550;2023-04-03T03:28:53;5.63;;;2.10;;
75739;SDS011;64357;51.344;6.550;2023-04-03T03:31:19;6.85;;;2.00;;
75739;SDS011;64357;51.344;6.550;2023-04-03T03:33:44;5.68;;;1.85;;
75739;SDS011;64357;51.344;6.550;2023-04-03T03:36:09;6.00;;;2.17;;
75739;SDS011;64357;51.344;6.550;2023-04-03T03:38:35;5.72;;;1.58;;
75739;SDS011;64357;51.344;6.550;2023-04-03T03:41:01;4.47;;;1.55;;
75739;SDS011;64357;51.344;6.550;2023-04-03T03:43:29;8.73;;;1.90;;
75739;SDS011;64357;51.344;6.550;2023-04-03T03:45:55;3.97;;;1.25;;
75739;SDS011;64357;51.344;6.550;2023-04-03T03:48:20;4.43;;;1.40;;
75739;SDS011;64357;51.344;6.550;2023-04-03T03:50:48;4.00;;;1.20;;
75739;SDS011;64357;51.344;6.550;2023-04-03T03:53:15;7.10;;;1.63;;
75739;SDS011;64357;51.344;6.550;2023-04-03T03:55:40;12.50;;;2.30;;
75739;SDS011;64357;51.344;6.550;2023-04-03T03:58:06;6.90;;;1.65;;
75739;SDS011;64357;51.344;6.550;2023-04-03T04:00:35;4.22;;;1.23;;
75739;SDS011;64357;51.344;6.550;2023-04-03T04:03:00;8.55;;;2.40;;
75739;SDS011;64357;51.344;6.550;2023-04-03T04:05:28;7.30;;;1.93;;
75739;SDS011;64357;51.344;6.550;2023-04-03T04:07:54;5.35;;;1.75;;
75739;SDS011;64357;51.344;6.550;2023-04-03T04:10:21;8.27;;;2.15;;
75739;SDS011;64357;51.344;6.550;2023-04-03T04:12:46;7.18;;;1.70;;
75739;SDS011;64357;51.344;6.550;2023-04-03T04:15:14;5.40;;;1.60;;
75739;SDS011;64357;51.344;6.550;2023-04-03T04:17:39;4.88;;;1.55;;
75739;SDS011;64357;51.344;6.550;2023-04-03T04:20:05;6.72;;;1.20;;
75739;SDS011;64357;51.344;6.550;2023-04-03T04:22:31;4.00;;;1.30;;
75739;SDS011;64357;51.344;6.550;2023-04-03T04:24:56;7.47;;;1.52;;
75739;SDS011;64357;51.344;6.550;2023-04-03T04:27:21;4.67;;;1.27;;
75739;SDS011;64357;51.344;6.550;2023-04-03T04:29:49;5.38;;;1.13;;
75739;SDS011;64357;51.344;6.550;2023-04-03T04:32:17;8.10;;;1.83;;
75739;SDS011;64357;51.344;6.550;2023-04-03T04:34:42;5.43;;;1.77;;
75739;SDS011;64357;51.344;6.550;2023-04-03T04:37:08;3.70;;;0.97;;
75739;SDS011;64357;51.344;6.550;2023-04-03T04:39:33;5.97;;;1.50;;
75739;SDS011;64357;51.344;6.550;2023-04-03T04:41:59;4.75;;;1.23;;
75739;SDS011;64357;51.344;6.550;2023-04-03T04:44:27;6.00;;;1.40;;
75739;SDS011;64357;51.344;6.550;2023-04-03T04:46:54;4.05;;;1.10;;
75739;SDS011;64357;51.344;6.550;2023-04-03T04:49:20;4.87;;;1.20;;
75739;SDS011;64357;51.344;6.550;2023-04-03T04:51:45;4.17;;;1.10;;
75739;SDS011;64357;51.344;6.550;2023-04-03T04:54:13;4.10;;;1.53;;
75739;SDS011;64357;51.344;6.550;2023-04-03T04:56:42;2.85;;;1.17;;
75739;SDS011;64357;51.344;6.550;2023-04-03T04:59:07;4.93;;;1.10;;
75739;SDS011;64357;51.344;6.550;2023-04-03T05:01:32;4.93;;;1.50;;
75739;SDS011;64357;51.344;6.550;2023-04-03T05:04:00;3.67;;;0.95;;
75739;SDS011;64357;51.344;6.550;2023-04-03T05:06:26;5.57;;;1.13;;
75739;SDS011;64357;51.344;6.550;2023-04-03T05:08:53;4.20;;;1.30;;
75739;SDS011;64357;51.344;6.550;2023-04-03T05:11:19;6.25;;;1.10;;
75739;SDS011;64357;51.344;6.550;2023-04-03T05:13:46;6.38;;;1.13;;
75739;SDS011;64357;51.344;6.550;2023-04-03T05:16:12;5.57;;;1.30;;
75739;SDS011;64357;51.344;6.550;2023-04-03T05:18:40;2.88;;;0.98;;
75739;SDS011;64357;51.344;6.550;2023-04-03T05:21:06;6.43;;;1.50;;
75739;SDS011;64357;51.344;6.550;2023-04-03T05:23:34;5.28;;;1.55;;
75739;SDS011;64357;51.344;6.550;2023-04-03T05:25:59;4.37;;;1.30;;
75739;SDS011;64357;51.344;6.550;2023-04-03T05:28:30;4.53;;;1.30;;
75739;SDS011;64357;51.344;6.550;2023-04-03T05:31:12;4.82;;;1.05;;
75739;SDS011;64357;51.344;6.550;2023-04-03T05:33:39;1.98;;;1.02;;
75739;SDS011;64357;51.344;6.550;2023-04-03T05:36:05;2.55;;;0.73;;
75739;SDS011;64357;51.344;6.550;2023-04-03T05:38:31;4.55;;;0.93;;
75739;SDS011;64357;51.344;6.550;2023-04-03T05:40:56;2.97;;;1.20;;
75739;SDS011;64357;51.344;6.550;2023-04-03T05:43:22;4.10;;;0.70;;
75739;SDS011;64357;51.344;6.550;2023-04-03T05:45:47;3.83;;;0.90;;
75739;SDS011;64357;51.344;6.550;2023-04-03T05:48:13;4.13;;;1.00;;
75739;SDS011;64357;51.344;6.550;2023-04-03T05:50:38;4.43;;;1.23;;
75739;SDS011;64357;51.344;6.550;2023-04-03T05:53:06;5.13;;;1.08;;
75739;SDS011;64357;51.344;6.550;2023-04-03T05:55:33;3.22;;;1.02;;
75739;SDS011;64357;51.344;6.550;2023-04-03T05:58:01;7.70;;;1.20;;
75739;SDS011;64357;51.344;6.550;2023-04-03T06:00:27;5.40;;;1.30;;
75739;SDS011;64357;51.344;6.550;2023-04-03T06:02:52;7.03;;;1.40;;
75739;SDS011;64357;51.344;6.550;2023-04-03T06:05:18;8.43;;;1.77;;
75739;SDS011;64357;51.344;6.550;2023-04-03T06:07:50;4.68;;;1.30;;
75739;SDS011;64357;51.344;6.550;2023-04-03T06:10:16;5.40;;;1.42;;
75739;SDS011;64357;51.344;6.550;2023-04-03T06:12:45;5.82;;;1.30;;
75739;SDS011;64357;51.344;6.550;2023-04-03T06:15:13;9.73;;;1.83;;
75739;SDS011;64357;51.344;6.550;2023-04-03T06:17:42;4.40;;;1.65;;
75739;SDS011;64357;51.344;6.550;2023-04-03T06:20:10;3.80;;;1.33;;
75739;SDS011;64357;51.344;6.550;2023-04-03T06:22:38;3.85;;;1.20;;
75739;SDS011;64357;51.344;6.550;2023-04-03T06:25:07;6.43;;;1.40;;
75739;SDS011;64357;51.344;6.550;2023-04-03T06:27:34;4.43;;;1.30;;
75739;SDS011;64357;51.344;6.550;2023-04-03T06:29:59;3.70;;;1.10;;
75739;SDS011;64357;51.344;6.550;2023-04-03T06:32:25;6.23;;;1.17;;
75739;SDS011;64357;51.344;6.550;2023-04-03T06:34:50;6.63;;;1.00;;
75739;SDS011;64357;51.344;6.550;2023-04-03T06:37:16;6.22;;;1.55;;
75739;SDS011;64357;51.344;6.550;2023-04-03T06:39:43;3.05;;;0.88;;
75739;SDS011;64357;51.344;6.550;2023-04-03T06:42:10;5.45;;;1.70;;
75739;SDS011;64357;51.344;6.550;2023-04-03T06:44:35;7.75;;;1.70;;
75739;SDS011;64357;51.344;6.550;2023-04-03T06:47:03;4.75;;;1.13;;
75739;SDS011;64357;51.344;6.550;2023-04-03T06:49:28;7.60;;;1.70;;
75739;SDS011;64357;51.344;6.550;2023-04-03T06:51:54;6.70;;;1.80;;
75739;SDS011;64357;51.344;6.550;2023-04-03T06:54:21;6.70;;;1.75;;
75739;SDS011;64357;51.344;6.550;2023-04-03T06:56:50;2.92;;;1.20;;
75739;SDS011;64357;51.344;6.550;2023-04-03T06:59:16;6.63;;;1.50;;
75739;SDS011;64357;51.344;6.550;2023-04-03T07:01:42;5.88;;;1.75;;
75739;SDS011;64357;51.344;6.550;2023-04-03T07:04:07;6.65;;;1.02;;
75739;SDS011;64357;51.344;6.550;2023-04-03T07:06:33;7.70;;;1.80;;
75739;SDS011;64357;51.344;6.550;2023-04-03T07:08:59;6.22;;;1.58;;
75739;SDS011;64357;51.344;6.550;2023-04-03T07:11:25;4.60;;;1.10;;
75739;SDS011;64357;51.344;6.550;2023-04-03T07:13:51;4.25;;;1.27;;
75739;SDS011;64357;51.344;6.550;2023-04-03T07:16:16;7.60;;;1.85;;
75739;SDS011;64357;51.344;6.550;2023-04-03T07:18:42;7.45;;;1.58;;
75739;SDS011;64357;51.344;6.550;2023-04-03T07:21:07;7.53;;;1.37;;
75739;SDS011;64357;51.344;6.550;2023-04-03T07:23:32;3.43;;;0.73;;
75739;SDS011;64357;51.344;6.550;2023-04-03T07:25:58;5.95;;;1.42;;
75739;SDS011;64357;51.344;6.550;2023-04-03T07:28:24;5.18;;;1.23;;
75739;SDS011;64357;51.344;6.550;2023-04-03T07:30:54;3.35;;;0.93;;
75739;SDS011;64357;51.344;6.550;2023-04-03T07:33:38;7.32;;;1.38;;
75739;SDS011;64357;51.344;6.550;2023-04-03T07:36:05;6.38;;;1.50;;
75739;SDS011;64357;51.344;6.550;2023-04-03T07:38:37;3.53;;;1.35;;
75739;SDS011;64357;51.344;6.550;2023-04-03T07:41:05;3.70;;;1.15;;
75739;SDS011;64357;51.344;6.550;2023-04-03T07:43:31;2.10;;;0.80;;
75739;SDS011;64357;51.344;6.550;2023-04-03T07:45:59;4.57;;;1.00;;
75739;SDS011;64357;51.344;6.550;2023-04-03T07:48:27;4.00;;;1.50;;
75739;SDS011;64357;51.344;6.550;2023-04-03T07:50:53;5.88;;;1.15;;
75739;SDS011;64357;51.344;6.550;2023-04-03T07:53:18;2.83;;;0.68;;
75739;SDS011;64357;51.344;6.550;2023-04-03T07:55:47;6.20;;;1.23;;
75739;SDS011;64357;51.344;6.550;2023-04-03T07:58:14;4.65;;;1.35;;
75739;SDS011;64357;51.344;6.550;2023-04-03T08:00:44;3.60;;;1.05;;
75739;SDS011;64357;51.344;6.550;2023-04-03T08:03:12;4.03;;;1.10;;
75739;SDS011;64357;51.344;6.550;2023-04-03T08:05:41;2.67;;;0.80;;
75739;SDS011;64357;51.344;6.550;2023-04-03T08:08:08;4.43;;;1.30;;
75739;SDS011;64357;51.344;6.550;2023-04-03T08:10:39;6.60;;;1.30;;
75739;SDS011;64357;51.344;6.550;2023-04-03T08:13:13;5.65;;;1.30;;
75739;SDS011;64357;51.344;6.550;2023-04-03T08:15:38;3.03;;;1.00;;
75739;SDS011;64357;51.344;6.550;2023-04-03T08:18:03;5.83;;;1.37;;
75739;SDS011;64357;51.344;6.550;2023-04-03T08:20:29;4.13;;;1.20;;
75739;SDS011;64357;51.344;6.550;2023-04-03T08:22:57;3.55;;;0.85;;
75739;SDS011;64357;51.344;6.550;2023-04-03T08:25:22;3.58;;;0.98;;
75739;SDS011;64357;51.344;6.550;2023-04-03T08:27:50;4.70;;;1.10;;
75739;SDS011;64357;51.344;6.550;2023-04-03T08:30:17;3.78;;;1.20;;
75739;SDS011;64357;51.344;6.550;2023-04-03T08:32:45;2.45;;;0.70;;
75739;SDS011;64357;51.344;6.550;2023-04-03T08:35:10;3.22;;;1.00;;
75739;SDS011;64357;51.344;6.550;2023-04-03T08:37:37;1.58;;;0.50;;
75739;SDS011;64357;51.344;6.550;2023-04-03T08:40:04;3.78;;;0.85;;
75739;SDS011;64357;51.344;6.550;2023-04-03T08:50:21;4.70;;;1.08;;
75739;SDS011;64357;51.344;6.550;2023-04-03T08:52:58;3.15;;;0.50;;
75739;SDS011;64357;51.344;6.550;2023-04-03T08:55:27;2.90;;;0.68;;
75739;SDS011;64357;51.344;6.550;2023-04-03T08:58:02;2.53;;;1.10;;
75739;SDS011;64357;51.344;6.550;2023-04-03T09:00:32;4.43;;;1.10;;
75739;SDS011;64357;51.344;6.550;2023-04-03T09:03:10;3.80;;;0.80;;
75739;SDS011;64357;51.344;6.550;2023-04-03T09:05:44;3.17;;;0.77;;
75739;SDS011;64357;51.344;6.550;2023-04-03T09:22:11;3.72;;;0.60;;
75739;SDS011;64357;51.344;6.550;2023-04-03T09:24:38;3.72;;;0.75;;
75739;SDS011;64357;51.344;6.550;2023-04-03T09:27:25;2.40;;;0.70;;
75739;SDS011;64357;51.344;6.550;2023-04-03T09:29:52;2.97;;;0.80;;
75739;SDS011;64357;51.344;6.550;2023-04-03T09:32:35;4.90;;;0.80;;
75739;SDS011;64357;51.344;6.550;2023-04-03T09:37:48;2.90;;;0.60;;
75739;SDS011;64357;51.344;6.550;2023-04-03T09:43:51;1.67;;;0.60;;
75739;SDS011;64357;51.344;6.550;2023-04-03T09:46:28;2.40;;;0.52;;
75739;SDS011;64357;51.344;6.550;2023-04-03T09:48:58;2.47;;;0.80;;
75739;SDS011;64357;51.344;6.550;2023-04-03T09:51:28;2.72;;;0.85;;
75739;SDS011;64357;51.344;6.550;2023-04-03T09:53:54;3.85;;;0.85;;
75739;SDS011;64357;51.344;6.550;2023-04-03T09:56:22;1.55;;;0.70;;
75739;SDS011;64357;51.344;6.550;2023-04-03T10:01:29;2.40;;;0.88;;
75739;SDS011;64357;51.344;6.550;2023-04-03T10:04:16;3.65;;;0.68;;
75739;SDS011;64357;51.344;6.550;2023-04-03T10:06:45;3.58;;;0.98;;
75739;SDS011;64357;51.344;6.550;2023-04-03T10:14:27;4.50;;;0.70;;
75739;SDS011;64357;51.344;6.550;2023-04-03T10:23:00;2.83;;;0.40;;
75739;SDS011;64357;51.344;6.550;2023-04-03T10:28:40;3.33;;;0.60;;
75739;SDS011;64357;51.344;6.550;2023-04-03T10:31:25;2.47;;;0.65;;
75739;SDS011;64357;51.344;6.550;2023-04-03T10:34:00;5.35;;;0.82;;
75739;SDS011;64357;51.344;6.550;2023-04-03T10:42:08;3.60;;;0.82;;
75739;SDS011;64357;51.344;6.550;2023-04-03T10:47:58;1.67;;;0.60;;
75739;SDS011;64357;51.344;6.550;2023-04-03T10:58:45;0.52;;;0.40;;
75739;SDS011;64357;51.344;6.550;2023-04-03T11:01:21;2.72;;;0.57;;
75739;SDS011;64357;51.344;6.550;2023-04-03T11:03:54;3.65;;;0.55;;
75739;SDS011;64357;51.344;6.550;2023-04-03T11:06:24;1.25;;;0.40;;
75739;SDS011;64357;51.344;6.550;2023-04-03T11:08:57;2.45;;;0.80;;
75739;SDS011;64357;51.344;6.550;2023-04-03T11:11:32;1.45;;;0.57;;
75739;SDS011;64357;51.344;6.550;2023-04-03T11:14:11;2.45;;;0.60;;
75739;SDS011;64357;51.344;6.550;2023-04-03T11:16:45;1.88;;;0.70;;
75739;SDS011;64357;51.344;6.550;2023-04-03T11:22:20;4.47;;;0.95;;
75739;SDS011;64357;51.344;6.550;2023-04-03T11:33:10;2.65;;;0.85;;
75739;SDS011;64357;51.344;6.550;2023-04-03T11:36:08;2.47;;;0.80;;
75739;SDS011;64357;51.344;6.550;2023-04-03T11:38:38;5.57;;;1.00;;
75739;SDS011;64357;51.344;6.550;2023-04-03T11:41:08;2.65;;;0.90;;
75739;SDS011;64357;51.344;6.550;2023-04-03T11:43:40;3.53;;;0.80;;
75739;SDS011;64357;51.344;6.550;2023-04-03T11:53:00;1.83;;;0.68;;
75739;SDS011;64357;51.344;6.550;2023-04-03T12:03:55;4.43;;;0.60;;
75739;SDS011;64357;51.344;6.550;2023-04-03T12:13:37;4.68;;;0.95;;
75739;SDS011;64357;51.344;6.550;2023-04-03T12:16:22;4.38;;;0.60;;
75739;SDS011;64357;51.344;6.550;2023-04-03T12:21:16;2.42;;;0.60;;
75739;SDS011;64357;51.344;6.550;2023-04-03T12:24:03;4.40;;;1.17;;
75739;SDS011;64357;51.344;6.550;2023-04-03T12:28:57;6.68;;;2.13;;
75739;SDS011;64357;51.344;6.550;2023-04-03T12:31:24;3.10;;;1.02;;
75739;SDS011;64357;51.344;6.550;2023-04-03T12:34:35;2.47;;;0.80;;
75739;SDS011;64357;51.344;6.550;2023-04-03T12:39:55;3.33;;;0.98;;
75739;SDS011;64357;51.344;6.550;2023-04-03T12:45:20;3.47;;;0.85;;
75739;SDS011;64357;51.344;6.550;2023-04-03T12:47:49;1.80;;;0.68;;
75739;SDS011;64357;51.344;6.550;2023-04-03T12:52:47;2.30;;;0.50;;
75739;SDS011;64357;51.344;6.550;2023-04-03T12:55:20;1.73;;;0.45;;
75739;SDS011;64357;51.344;6.550;2023-04-03T12:57:46;2.15;;;0.70;;
75739;SDS011;64357;51.344;6.550;2023-04-03T13:00:45;1.85;;;0.73;;
75739;SDS011;64357;51.344;6.550;2023-04-03T13:03:05;2.90;;;0.88;;
75739;SDS011;64357;51.344;6.550;2023-04-03T13:05:44;3.10;;;0.70;;
75739;SDS011;64357;51.344;6.550;2023-04-03T13:08:11;4.47;;;0.90;;
75739;SDS011;64357;51.344;6.550;2023-04-03T13:10:43;1.38;;;0.40;;
75739;SDS011;64357;51.344;6.550;2023-04-03T13:13:20;1.83;;;0.70;;
75739;SDS011;64357;51.344;6.550;2023-04-03T13:15:46;2.92;;;0.80;;
75739;SDS011;64357;51.344;6.550;2023-04-03T13:20:52;3.63;;;1.10;;
75739;SDS011;64357;51.344;6.550;2023-04-03T13:23:19;1.63;;;0.80;;
75739;SDS011;64357;51.344;6.550;2023-04-03T13:25:46;3.65;;;0.65;;
75739;SDS011;64357;51.344;6.550;2023-04-03T13:28:14;1.52;;;0.47;;
75739;SDS011;64357;51.344;6.550;2023-04-03T13:33:35;1.73;;;0.55;;
75739;SDS011;64357;51.344;6.550;2023-04-03T13:36:16;2.28;;;0.65;;
75739;SDS011;64357;51.344;6.550;2023-04-03T13:38:45;1.92;;;0.75;;
75739;SDS011;64357;51.344;6.550;2023-04-03T13:41:30;1.77;;;0.47;;
75739;SDS011;64357;51.344;6.550;2023-04-03T13:46:53;1.73;;;0.60;;
75739;SDS011;64357;51.344;6.550;2023-04-03T13:49:29;1.92;;;0.65;;
75739;SDS011;64357;51.344;6.550;2023-04-03T13:52:02;2.63;;;0.60;;
75739;SDS011;64357;51.344;6.550;2023-04-03T13:54:58;2.13;;;0.63;;
75739;SDS011;64357;51.344;6.550;2023-04-03T13:57:25;3.78;;;0.60;;
75739;SDS011;64357;51.344;6.550;2023-04-03T13:59:53;5.72;;;0.80;;
75739;SDS011;64357;51.344;6.550;2023-04-03T14:05:04;1.00;;;0.32;;
75739;SDS011;64357;51.344;6.550;2023-04-03T14:07:33;2.50;;;0.50;;
75739;SDS011;64357;51.344;6.550;2023-04-03T14:10:02;3.28;;;0.75;;
75739;SDS011;64357;51.344;6.550;2023-04-03T14:12:34;1.17;;;0.50;;
75739;SDS011;64357;51.344;6.550;2023-04-03T14:15:20;4.38;;;0.60;;
75739;SDS011;64357;51.344;6.550;2023-04-03T14:17:49;1.85;;;0.60;;
75739;SDS011;64357;51.344;6.550;2023-04-03T14:20:19;5.60;;;0.82;;
75739;SDS011;64357;51.344;6.550;2023-04-03T14:22:49;2.33;;;0.57;;
75739;SDS011;64357;51.344;6.550;2023-04-03T14:25:16;2.08;;;0.65;;
75739;SDS011;64357;51.344;6.550;2023-04-03T14:27:48;4.18;;;0.68;;
75739;SDS011;64357;51.344;6.550;2023-04-03T14:30:23;1.17;;;0.43;;
75739;SDS011;64357;51.344;6.550;2023-04-03T14:32:55;2.35;;;0.70;;
75739;SDS011;64357;51.344;6.550;2023-04-03T14:35:20;3.25;;;0.73;;
75739;SDS011;64357;51.344;6.550;2023-04-03T14:37:49;1.45;;;0.47;;
75739;SDS011;64357;51.344;6.550;2023-04-03T14:40:17;4.80;;;1.83;;
75739;SDS011;64357;51.344;6.550;2023-04-03T14:42:47;1.25;;;0.43;;
75739;SDS011;64357;51.344;6.550;2023-04-03T14:45:23;4.80;;;0.70;;
75739;SDS011;64357;51.344;6.550;2023-04-03T14:47:52;2.17;;;0.47;;
75739;SDS011;64357;51.344;6.550;2023-04-03T14:50:25;2.80;;;0.73;;
75739;SDS011;64357;51.344;6.550;2023-04-03T14:52:57;1.23;;;0.40;;
75739;SDS011;64357;51.344;6.550;2023-04-03T14:55:25;1.88;;;0.68;;
75739;SDS011;64357;51.344;6.550;2023-04-03T14:57:53;1.45;;;0.65;;
75739;SDS011;64357;51.344;6.550;2023-04-03T15:00:19;1.50;;;0.43;;
75739;SDS011;64357;51.344;6.550;2023-04-03T15:02:49;1.35;;;0.43;;
75739;SDS011;64357;51.344;6.550;2023-04-03T15:07:59;3.00;;;0.50;;
75739;SDS011;64357;51.344;6.550;2023-04-03T15:10:29;3.50;;;0.70;;
75739;SDS011;64357;51.344;6.550;2023-04-03T15:12:59;3.45;;;0.63;;
75739;SDS011;64357;51.344;6.550;2023-04-03T15:18:26;1.60;;;0.40;;
75739;SDS011;64357;51.344;6.550;2023-04-03T15:21:00;1.85;;;0.60;;
75739;SDS011;64357;51.344;6.550;2023-04-03T15:23:26;4.00;;;0.68;;
75739;SDS011;64357;51.344;6.550;2023-04-03T15:25:55;4.70;;;0.70;;
75739;SDS011;64357;51.344;6.550;2023-04-03T15:28:30;2.42;;;0.40;;
75739;SDS011;64357;51.344;6.550;2023-04-03T15:31:13;2.13;;;0.43;;
75739;SDS011;64357;51.344;6.550;2023-04-03T15:33:41;4.03;;;0.82;;
75739;SDS011;64357;51.344;6.550;2023-04-03T15:36:06;2.42;;;0.73;;
75739;SDS011;64357;51.344;6.550;2023-04-03T15:38:36;2.85;;;0.55;;
75739;SDS011;64357;51.344;6.550;2023-04-03T15:41:07;0.98;;;0.50;;
75739;SDS011;64357;51.344;6.550;2023-04-03T15:43:32;1.15;;;0.45;;
75739;SDS011;64357;51.344;6.550;2023-04-03T15:48:41;2.15;;;0.70;;
75739;SDS011;64357;51.344;6.550;2023-04-03T15:51:13;3.60;;;0.82;;
75739;SDS011;64357;51.344;6.550;2023-04-03T15:53:43;1.17;;;0.20;;
75739;SDS011;64357;51.344;6.550;2023-04-03T15:56:09;1.65;;;0.52;;
75739;SDS011;64357;51.344;6.550;2023-04-03T15:58:37;2.95;;;0.73;;
75739;SDS011;64357;51.344;6.550;2023-04-03T16:01:04;2.70;;;0.50;;
75739;SDS011;64357;51.344;6.550;2023-04-03T16:03:31;3.67;;;0.47;;
75739;SDS011;64357;51.344;6.550;2023-04-03T16:05:58;2.38;;;0.40;;
75739;SDS011;64357;51.344;6.550;2023-04-03T16:08:27;2.03;;;0.60;;
75739;SDS011;64357;51.344;6.550;2023-04-03T16:10:52;3.28;;;0.50;;
75739;SDS011;64357;51.344;6.550;2023-04-03T16:13:18;3.38;;;0.50;;
75739;SDS011;64357;51.344;6.550;2023-04-03T16:15:45;1.92;;;0.35;;
75739;SDS011;64357;51.344;6.550;2023-04-03T16:18:17;2.15;;;0.85;;
75739;SDS011;64357;51.344;6.550;2023-04-03T16:20:49;3.85;;;0.60;;
75739;SDS011;64357;51.344;6.550;2023-04-03T16:23:25;2.22;;;0.60;;
75739;SDS011;64357;51.344;6.550;2023-04-03T16:25:57;1.98;;;0.80;;
75739;SDS011;64357;51.344;6.550;2023-04-03T16:28:26;2.67;;;0.55;;
75739;SDS011;64357;51.344;6.550;2023-04-03T16:30:51;5.18;;;0.80;;
75739;SDS011;64357;51.344;6.550;2023-04-03T16:33:37;1.10;;;0.50;;
75739;SDS011;64357;51.344;6.550;2023-04-03T16:36:04;2.35;;;0.68;;
75739;SDS011;64357;51.344;6.550;2023-04-03T16:41:43;2.90;;;0.50;;
75739;SDS011;64357;51.344;6.550;2023-04-03T16:44:39;6.43;;;0.90;;
75739;SDS011;64357;51.344;6.550;2023-04-03T16:47:07;1.23;;;0.70;;
75739;SDS011;64357;51.344;6.550;2023-04-03T16:49:41;7.90;;;1.02;;
75739;SDS011;64357;51.344;6.550;2023-04-03T16:52:50;5.55;;;0.73;;
75739;SDS011;64357;51.344;6.550;2023-04-03T16:55:27;4.22;;;0.80;;
75739;SDS011;64357;51.344;6.550;2023-04-03T16:57:57;3.63;;;0.80;;
75739;SDS011;64357;51.344;6.550;2023-04-03T17:00:25;2.63;;;0.90;;
75739;SDS011;64357;51.344;6.550;2023-04-03T17:03:09;2.85;;;0.60;;
75739;SDS011;64357;51.344;6.550;2023-04-03T17:06:12;1.42;;;0.50;;
75739;SDS011;64357;51.344;6.550;2023-04-03T17:09:01;2.05;;;0.93;;
75739;SDS011;64357;51.344;6.550;2023-04-03T17:11:37;2.72;;;0.70;;
75739;SDS011;64357;51.344;6.550;2023-04-03T17:14:09;4.75;;;0.80;;
75739;SDS011;64357;51.344;6.550;2023-04-03T17:16:35;3.38;;;0.80;;
75739;SDS011;64357;51.344;6.550;2023-04-03T17:21:37;2.28;;;0.60;;